createdAt,value
2023-05-05T00:02:09.223Z,7.77
2023-05-05T00:04:36.745Z,8.33
2023-05-05T00:07:04.034Z,7.97
2023-05-05T00:09:31.289Z,7.05
2023-05-05T00:11:58.504Z,7.50
2023-05-05T00:14:25.872Z,7.53
2023-05-05T00:16:53.050Z,7.13
2023-05-05T00:19:20.351Z,6.97
2023-05-05T00:21:47.500Z,6.87
2023-05-05T00:24:14.841Z,7.10
2023-05-05T00:26:41.962Z,6.67
2023-05-05T00:29:09.232Z,6.87
2023-05-05T00:31:37.492Z,6.53
2023-05-05T00:34:05.100Z,6.93
2023-05-05T00:36:32.761Z,6.63
2023-05-05T00:39:00.229Z,6.67
2023-05-05T00:41:27.668Z,7.43
2023-05-05T00:43:55.145Z,7.03
2023-05-05T00:46:27.111Z,6.77
2023-05-05T00:48:55.215Z,7.20
2023-05-05T00:51:22.696Z,7.13
2023-05-05T00:53:50.368Z,6.87
2023-05-05T00:56:17.796Z,6.70
2023-05-05T00:58:45.437Z,6.60
2023-05-05T01:01:12.777Z,6.03
2023-05-05T01:03:41.512Z,6.40
2023-05-05T01:06:24.652Z,6.37
2023-05-05T01:09:09.904Z,6.80
2023-05-05T01:11:56.383Z,6.70
2023-05-05T01:14:43.897Z,6.30
2023-05-05T01:17:18.598Z,6.33
2023-05-05T01:19:55.515Z,5.80
2023-05-05T01:22:25.124Z,5.97
2023-05-05T01:25:04.449Z,5.63
2023-05-05T01:27:50.202Z,6.53
2023-05-05T01:30:23.402Z,5.97
2023-05-05T01:32:55.826Z,6.23
2023-05-05T01:35:33.833Z,5.30
2023-05-05T01:38:07.145Z,5.00
2023-05-05T01:40:47.079Z,5.80
2023-05-05T01:43:15.981Z,5.90
2023-05-05T01:45:44.086Z,6.00
2023-05-05T01:48:12.718Z,5.57
2023-05-05T01:50:41.793Z,6.10
2023-05-05T01:53:09.918Z,5.50
2023-05-05T01:55:38.080Z,5.60
2023-05-05T01:58:06.573Z,4.67
2023-05-05T02:00:35.197Z,4.73
2023-05-05T02:03:04.623Z,4.70
2023-05-05T02:05:33.509Z,5.67
2023-05-05T02:08:01.111Z,5.60
2023-05-05T02:10:29.210Z,4.97
2023-05-05T02:12:56.672Z,4.47
2023-05-05T02:15:24.873Z,5.00
2023-05-05T02:17:53.154Z,5.47
2023-05-05T02:20:21.004Z,5.53
2023-05-05T02:22:48.238Z,5.13
2023-05-05T02:25:17.672Z,5.20
2023-05-05T02:27:45.800Z,4.83
2023-05-05T02:30:15.513Z,5.27
2023-05-05T02:32:54.777Z,4.57
2023-05-05T02:35:23.861Z,4.73
2023-05-05T02:38:01.863Z,4.60
2023-05-05T02:40:30.790Z,4.80
2023-05-05T02:42:59.587Z,5.27
2023-05-05T02:45:27.688Z,5.17
2023-05-05T02:47:54.900Z,4.80
2023-05-05T02:50:22.200Z,4.30
2023-05-05T02:52:49.543Z,4.90
2023-05-05T02:55:17.040Z,4.40
2023-05-05T02:57:44.583Z,4.93
2023-05-05T03:00:17.624Z,4.30
2023-05-05T03:02:47.454Z,4.23
2023-05-05T03:05:19.824Z,3.87
2023-05-05T03:07:54.903Z,4.27
2023-05-05T03:10:26.061Z,4.17
2023-05-05T03:12:58.081Z,4.83
2023-05-05T03:15:41.513Z,4.13
2023-05-05T03:18:10.916Z,3.90
2023-05-05T03:20:40.518Z,3.87
2023-05-05T03:23:08.337Z,4.27
2023-05-05T03:25:53.382Z,4.40
2023-05-05T03:28:20.578Z,4.20
2023-05-05T03:30:47.875Z,4.17
2023-05-05T03:33:16.621Z,4.47
2023-05-05T03:35:43.825Z,4.17
2023-05-05T03:38:11.006Z,4.03
2023-05-05T03:40:44.154Z,3.90
2023-05-05T03:43:11.960Z,3.77
2023-05-05T03:45:39.226Z,3.90
2023-05-05T03:48:07.100Z,3.93
2023-05-05T03:50:34.405Z,3.70
2023-05-05T03:53:01.600Z,3.57
2023-05-05T03:55:28.867Z,3.87
2023-05-05T03:57:56.640Z,4.33
2023-05-05T04:00:23.913Z,3.87
2023-05-05T04:02:51.187Z,3.53
2023-05-05T04:05:19.879Z,3.43
2023-05-05T04:07:47.038Z,4.17
2023-05-05T04:10:14.216Z,3.40
2023-05-05T04:12:41.495Z,3.63
2023-05-05T04:15:09.661Z,3.60
2023-05-05T04:17:36.946Z,3.83
2023-05-05T04:20:04.678Z,3.40
2023-05-05T04:22:32.395Z,3.47
2023-05-05T04:24:59.546Z,3.63
2023-05-05T04:27:28.976Z,3.87
2023-05-05T04:29:56.717Z,3.80
2023-05-05T04:32:23.953Z,3.53
2023-05-05T04:34:51.193Z,3.60
2023-05-05T04:37:18.380Z,3.63
2023-05-05T04:39:46.661Z,2.97
2023-05-05T04:42:13.850Z,3.27
2023-05-05T04:44:41.499Z,3.33
2023-05-05T04:47:08.743Z,3.50
2023-05-05T04:49:36.097Z,3.70
2023-05-05T04:52:03.290Z,3.60
2023-05-05T04:54:30.534Z,3.53
2023-05-05T04:56:57.839Z,3.77
2023-05-05T04:59:25.056Z,3.70
2023-05-05T05:01:52.336Z,3.10
2023-05-05T05:04:21.603Z,3.90
2023-05-05T05:06:48.784Z,3.60
2023-05-05T05:09:15.939Z,3.70
2023-05-05T05:11:43.431Z,3.47
2023-05-05T05:14:10.802Z,3.83
2023-05-05T05:16:38.068Z,3.20
2023-05-05T05:19:05.506Z,3.97
2023-05-05T05:21:32.763Z,3.50
2023-05-05T05:24:00.014Z,3.77
2023-05-05T05:26:28.180Z,3.90
2023-05-05T05:28:55.684Z,3.03
2023-05-05T05:31:22.846Z,4.03
2023-05-05T05:33:50.083Z,3.73
2023-05-05T05:36:17.315Z,3.70
2023-05-05T05:38:44.508Z,3.83
2023-05-05T05:41:11.716Z,3.63
2023-05-05T05:43:38.897Z,3.70
2023-05-05T05:46:08.932Z,3.77
2023-05-05T05:48:36.517Z,3.67
2023-05-05T05:51:03.717Z,3.53
2023-05-05T05:53:30.951Z,3.67
2023-05-05T05:55:58.118Z,3.70
2023-05-05T05:58:25.327Z,3.97
2023-05-05T06:00:52.515Z,3.57
2023-05-05T06:03:19.887Z,3.67
2023-05-05T06:05:47.230Z,3.73
2023-05-05T06:08:14.365Z,3.80
2023-05-05T06:10:42.517Z,3.60
2023-05-05T06:13:09.772Z,4.17
2023-05-05T06:15:37.065Z,3.67
2023-05-05T06:18:04.425Z,3.87
2023-05-05T06:20:31.592Z,3.60
2023-05-05T06:22:58.942Z,3.63
2023-05-05T06:25:26.658Z,3.93
2023-05-05T06:27:54.264Z,4.60
2023-05-05T06:30:21.621Z,4.10
2023-05-05T06:32:48.811Z,3.93
2023-05-05T06:35:15.961Z,3.50
2023-05-05T06:37:44.259Z,3.37
2023-05-05T06:40:12.009Z,3.60
2023-05-05T06:42:39.165Z,3.97
2023-05-05T06:45:06.634Z,3.43
2023-05-05T06:47:33.938Z,3.20
2023-05-05T06:50:01.121Z,3.30
2023-05-05T06:52:28.328Z,3.37
2023-05-05T06:54:55.526Z,3.40
2023-05-05T06:57:22.998Z,3.93
2023-05-05T06:59:50.269Z,3.43
2023-05-05T07:02:17.605Z,4.10
2023-05-05T07:04:44.890Z,3.30
2023-05-05T07:07:12.315Z,3.20
2023-05-05T07:09:41.250Z,3.63
2023-05-05T07:12:08.921Z,4.17
2023-05-05T07:14:36.267Z,3.70
2023-05-05T07:17:03.427Z,3.80
2023-05-05T07:19:30.688Z,3.80
2023-05-05T07:21:58.406Z,3.77
2023-05-05T07:24:25.616Z,3.67
2023-05-05T07:26:53.348Z,3.87
2023-05-05T07:29:20.719Z,4.00
2023-05-05T07:31:47.981Z,3.70
2023-05-05T07:34:15.146Z,3.83
2023-05-05T07:36:42.743Z,4.10
2023-05-05T07:39:10.162Z,4.03
2023-05-05T07:41:37.364Z,3.88
2023-05-05T07:44:04.752Z,3.63
2023-05-05T07:46:32.215Z,3.90
2023-05-05T07:48:59.459Z,3.65
2023-05-05T07:51:27.734Z,3.63
2023-05-05T07:53:55.023Z,3.53
2023-05-05T07:56:22.637Z,3.92
2023-05-05T07:58:50.193Z,3.80
2023-05-05T08:01:17.489Z,3.70
2023-05-05T08:03:44.784Z,4.32
2023-05-05T08:06:12.338Z,4.05
2023-05-05T08:08:39.519Z,3.42
2023-05-05T08:11:06.928Z,4.18
2023-05-05T08:13:34.503Z,3.53
2023-05-05T08:16:01.705Z,3.70
2023-05-05T08:18:29.066Z,5.88
2023-05-05T08:20:56.577Z,3.70
2023-05-05T08:23:23.835Z,3.28
2023-05-05T08:25:52.763Z,3.75
2023-05-05T08:28:19.949Z,4.13
2023-05-05T08:30:47.144Z,4.60
2023-05-05T08:33:14.392Z,4.07
2023-05-05T08:35:41.746Z,3.85
2023-05-05T08:38:08.951Z,3.90
2023-05-05T08:40:37.822Z,4.00
2023-05-05T08:43:05.766Z,3.50
2023-05-05T08:45:33.060Z,4.18
2023-05-05T08:48:04.605Z,4.03
2023-05-05T08:50:32.718Z,3.97
2023-05-05T08:53:16.625Z,4.20
2023-05-05T08:55:51.092Z,3.78
2023-05-05T08:58:23.699Z,4.05
2023-05-05T09:00:51.412Z,3.70
2023-05-05T09:03:19.179Z,3.60
2023-05-05T09:05:46.587Z,4.30
2023-05-05T09:08:14.053Z,3.75
2023-05-05T09:10:42.121Z,3.92
2023-05-05T09:13:09.591Z,3.63
2023-05-05T09:15:38.923Z,3.92
2023-05-05T09:18:12.112Z,3.95
2023-05-05T09:20:40.736Z,3.45
2023-05-05T09:23:09.134Z,4.03
2023-05-05T09:25:36.396Z,3.83
2023-05-05T09:28:13.737Z,4.30
2023-05-05T09:30:41.632Z,3.90
2023-05-05T09:33:09.239Z,3.28
2023-05-05T09:35:50.230Z,3.90
2023-05-05T09:38:17.901Z,4.05
2023-05-05T09:40:46.727Z,4.10
2023-05-05T09:43:13.986Z,3.67
2023-05-05T09:45:41.935Z,4.10
2023-05-05T09:48:09.355Z,4.18
2023-05-05T09:50:43.847Z,4.93
2023-05-05T09:53:11.938Z,5.22
2023-05-05T09:55:39.477Z,4.93
2023-05-05T09:58:19.963Z,3.53
2023-05-05T10:00:47.766Z,5.47
2023-05-05T10:03:15.011Z,5.45
2023-05-05T10:05:49.013Z,4.07
2023-05-05T10:08:16.766Z,3.40
2023-05-05T10:10:48.201Z,4.50
2023-05-05T10:13:16.299Z,3.95
2023-05-05T10:15:45.595Z,4.47
2023-05-05T10:18:14.663Z,4.15
2023-05-05T10:20:43.836Z,3.97
2023-05-05T10:23:12.043Z,4.18
2023-05-05T10:25:42.939Z,4.30
2023-05-05T10:28:11.300Z,3.90
2023-05-05T10:30:43.419Z,4.25
2023-05-05T10:33:30.961Z,4.32
2023-05-05T10:36:01.314Z,4.30
2023-05-05T10:38:31.042Z,4.57
2023-05-05T10:41:02.106Z,4.75
2023-05-05T10:43:30.739Z,4.90
2023-05-05T10:45:58.449Z,4.82
2023-05-05T10:48:31.909Z,4.38
2023-05-05T10:51:35.256Z,4.30
2023-05-05T10:54:13.986Z,4.55
2023-05-05T10:56:41.777Z,4.90
2023-05-05T10:59:35.751Z,5.82
2023-05-05T11:02:19.146Z,8.00
2023-05-05T11:05:03.877Z,4.72
2023-05-05T11:07:33.813Z,4.82
2023-05-05T11:10:01.988Z,4.55
2023-05-05T11:12:29.887Z,5.68
2023-05-05T11:15:15.964Z,7.38
2023-05-05T11:17:47.079Z,5.18
2023-05-05T11:20:14.498Z,5.10
2023-05-05T11:23:00.745Z,4.72
2023-05-05T11:25:38.137Z,5.00
2023-05-05T11:28:06.132Z,5.05
2023-05-05T11:30:33.678Z,5.00
2023-05-05T11:33:19.653Z,5.07
2023-05-05T11:35:56.211Z,4.82
2023-05-05T11:38:26.858Z,5.57
2023-05-05T11:40:58.779Z,5.25
2023-05-05T11:43:25.947Z,5.43
2023-05-05T11:46:11.115Z,4.72
2023-05-05T11:48:47.272Z,5.30
2023-05-05T11:51:14.824Z,5.03
2023-05-05T11:53:46.090Z,4.85
2023-05-05T11:56:21.936Z,5.10
2023-05-05T11:58:49.896Z,5.00
2023-05-05T12:01:17.246Z,4.88
2023-05-05T12:03:45.688Z,4.95
2023-05-05T12:06:13.847Z,5.38
2023-05-05T12:08:41.553Z,5.55
2023-05-05T12:11:09.387Z,5.47
2023-05-05T12:13:36.702Z,5.10
2023-05-05T12:16:09.923Z,5.47
2023-05-05T12:18:37.156Z,4.90
2023-05-05T12:21:14.477Z,5.28
2023-05-05T12:23:41.716Z,5.15
2023-05-05T12:26:08.976Z,4.78
2023-05-05T12:28:48.972Z,5.05
2023-05-05T12:31:16.836Z,5.10
2023-05-05T12:33:44.391Z,5.38
2023-05-05T12:36:12.292Z,5.43
2023-05-05T12:38:39.667Z,4.63
2023-05-05T12:41:06.910Z,5.18
2023-05-05T12:43:35.898Z,5.15
2023-05-05T12:46:06.386Z,4.80
2023-05-05T12:48:34.022Z,5.05
2023-05-05T12:51:20.995Z,5.55
2023-05-05T12:53:48.666Z,4.80
2023-05-05T12:56:34.502Z,4.45
2023-05-05T12:59:02.623Z,5.47
2023-05-05T13:01:30.229Z,4.80
2023-05-05T13:04:06.465Z,4.97
2023-05-05T13:06:34.214Z,4.88
2023-05-05T13:09:01.361Z,4.78
2023-05-05T13:11:28.642Z,4.45
2023-05-05T13:13:56.463Z,4.70
2023-05-05T13:16:23.772Z,4.50
2023-05-05T13:18:51.373Z,4.47
2023-05-05T13:21:18.583Z,4.25
2023-05-05T13:23:46.416Z,4.18
2023-05-05T13:26:14.117Z,4.18
2023-05-05T13:28:41.798Z,4.25
2023-05-05T13:31:09.126Z,4.38
2023-05-05T13:33:36.439Z,4.85
2023-05-05T13:36:03.767Z,4.53
2023-05-05T13:38:34.537Z,5.03
2023-05-05T13:41:01.821Z,5.13
2023-05-05T13:43:28.982Z,5.13
2023-05-05T13:46:05.618Z,5.22
2023-05-05T13:48:36.100Z,4.20
2023-05-05T13:51:03.283Z,4.18
2023-05-05T13:53:30.605Z,5.22
2023-05-05T13:55:58.099Z,4.75
2023-05-05T13:58:25.249Z,4.63
2023-05-05T14:00:52.487Z,4.60
2023-05-05T14:03:19.682Z,4.72
2023-05-05T14:05:46.924Z,5.00
2023-05-05T14:08:14.440Z,4.70
2023-05-05T14:10:41.621Z,5.07
2023-05-05T14:13:08.824Z,4.30
2023-05-05T14:15:36.898Z,5.10
2023-05-05T14:18:04.175Z,4.80
2023-05-05T14:20:31.696Z,5.18
2023-05-05T14:22:59.130Z,4.57
2023-05-05T14:25:26.556Z,4.80
2023-05-05T14:27:54.275Z,4.75
2023-05-05T14:30:21.622Z,5.05
2023-05-05T14:32:49.044Z,4.50
2023-05-05T14:35:16.259Z,4.93
2023-05-05T14:37:43.558Z,4.80
2023-05-05T14:40:10.983Z,4.82
2023-05-05T14:42:38.165Z,5.80
2023-05-05T14:45:06.537Z,5.10
2023-05-05T14:47:34.879Z,5.10
2023-05-05T14:50:02.354Z,5.20
2023-05-05T14:52:29.660Z,4.63
2023-05-05T14:54:56.879Z,4.68
2023-05-05T14:57:24.079Z,4.40
2023-05-05T14:59:53.059Z,4.35
2023-05-05T15:02:20.291Z,4.15
2023-05-05T15:04:49.268Z,3.70
2023-05-05T15:07:17.244Z,3.95
2023-05-05T15:09:44.372Z,4.22
2023-05-05T15:12:11.589Z,4.25
2023-05-05T15:14:39.964Z,3.88
2023-05-05T15:17:07.126Z,3.47
2023-05-05T15:19:34.304Z,4.00
2023-05-05T15:22:01.502Z,3.80
2023-05-05T15:24:28.703Z,3.65
2023-05-05T15:26:55.984Z,3.75
2023-05-05T15:29:23.209Z,3.50
2023-05-05T15:31:50.763Z,5.55
2023-05-05T15:34:19.394Z,3.80
2023-05-05T15:36:46.641Z,3.22
2023-05-05T15:39:13.860Z,3.40
2023-05-05T15:41:41.321Z,3.72
2023-05-05T15:44:09.014Z,3.50
2023-05-05T15:46:36.434Z,3.95
2023-05-05T15:49:03.603Z,4.18
2023-05-05T15:51:32.286Z,3.78
2023-05-05T15:54:00.263Z,4.55
2023-05-05T15:56:27.594Z,4.22
2023-05-05T15:59:03.528Z,4.13
2023-05-05T16:01:30.881Z,3.40
2023-05-05T16:03:59.876Z,3.60
2023-05-05T16:06:27.336Z,3.83
2023-05-05T16:08:56.112Z,3.70
2023-05-05T16:11:23.952Z,3.88
2023-05-05T16:13:51.156Z,4.00
2023-05-05T16:16:18.444Z,3.63
2023-05-05T16:18:45.751Z,3.45
2023-05-05T16:21:13.041Z,3.50
2023-05-05T16:23:40.247Z,3.30
2023-05-05T16:26:07.403Z,3.42
2023-05-05T16:28:34.786Z,2.88
2023-05-05T16:31:02.526Z,3.55
2023-05-05T16:33:29.850Z,3.75
2023-05-05T16:35:57.480Z,3.58
2023-05-05T16:38:24.650Z,3.47
2023-05-05T16:40:51.786Z,3.03
2023-05-05T16:43:19.624Z,3.72
2023-05-05T16:45:46.859Z,2.75
2023-05-05T16:48:14.780Z,3.50
2023-05-05T16:50:41.989Z,4.22
2023-05-05T16:53:10.065Z,3.30
2023-05-05T16:55:37.840Z,3.42
2023-05-05T16:58:05.161Z,3.25
2023-05-05T17:00:32.418Z,3.10
2023-05-05T17:02:59.678Z,3.10
2023-05-05T17:05:27.122Z,3.30
2023-05-05T17:07:54.532Z,3.10
2023-05-05T17:10:21.858Z,2.88
2023-05-05T17:12:49.276Z,3.70
2023-05-05T17:15:16.665Z,3.40
2023-05-05T17:17:43.856Z,3.40
2023-05-05T17:20:12.037Z,3.20
2023-05-05T17:22:39.261Z,3.65
2023-05-05T17:30:27.630Z,3.83
2023-05-05T17:32:54.855Z,3.05
2023-05-05T17:35:22.093Z,2.90
2023-05-05T17:37:49.360Z,3.15
2023-05-05T17:40:16.496Z,3.45
2023-05-05T17:42:43.680Z,2.90
2023-05-05T17:45:11.916Z,3.35
2023-05-05T17:47:39.349Z,2.80
2023-05-05T17:50:06.958Z,3.28
2023-05-05T17:52:34.135Z,3.75
2023-05-05T17:55:01.317Z,3.47
2023-05-05T17:57:28.686Z,3.35
2023-05-05T17:59:56.107Z,3.15
2023-05-05T18:02:24.222Z,2.88
2023-05-05T18:04:51.554Z,3.05
2023-05-05T18:07:19.363Z,3.13
2023-05-05T18:09:46.542Z,3.00
2023-05-05T18:12:13.719Z,3.25
2023-05-05T18:14:41.058Z,2.70
2023-05-05T18:17:08.212Z,2.88
2023-05-05T18:19:35.397Z,3.08
2023-05-05T18:22:02.545Z,3.47
2023-05-05T18:24:29.766Z,3.25
2023-05-05T18:26:56.975Z,3.17
2023-05-05T18:29:24.174Z,3.22
2023-05-05T18:31:54.830Z,3.20
2023-05-05T18:34:22.378Z,3.15
2023-05-05T18:36:50.832Z,3.60
2023-05-05T18:39:18.029Z,3.60
2023-05-05T18:41:45.301Z,3.08
2023-05-05T18:44:12.518Z,3.97
2023-05-05T18:46:39.754Z,3.35
2023-05-05T18:49:07.439Z,3.67
2023-05-05T18:51:34.631Z,3.85
2023-05-05T18:54:01.819Z,3.80
2023-05-05T18:56:29.501Z,3.35
2023-05-05T18:58:56.697Z,3.47
2023-05-05T19:01:24.303Z,3.78
2023-05-05T19:03:51.559Z,3.40
2023-05-05T19:06:18.778Z,3.47
2023-05-05T19:08:46.632Z,3.40
2023-05-05T19:11:15.157Z,3.15
2023-05-05T19:13:42.614Z,3.60
2023-05-05T19:16:11.263Z,3.77
2023-05-05T19:18:38.863Z,5.28
2023-05-05T19:21:06.285Z,3.93
2023-05-05T19:23:33.617Z,3.90
2023-05-05T19:26:00.964Z,4.00
2023-05-05T19:28:28.171Z,4.22
2023-05-05T19:30:55.527Z,3.90
2023-05-05T19:33:22.879Z,4.20
2023-05-05T19:35:50.574Z,4.10
2023-05-05T19:38:17.814Z,4.37
2023-05-05T19:40:44.948Z,3.85
2023-05-05T19:43:12.092Z,4.40
2023-05-05T19:45:39.382Z,3.83
2023-05-05T19:48:06.808Z,4.57
2023-05-05T19:50:33.956Z,3.97
2023-05-05T19:53:01.231Z,4.00
2023-05-05T19:55:28.462Z,4.50
2023-05-05T19:57:55.736Z,4.20
2023-05-05T20:00:23.048Z,3.90
2023-05-05T20:02:50.381Z,4.07
2023-05-05T20:05:17.949Z,4.33
2023-05-05T20:07:47.000Z,4.77
2023-05-05T20:10:14.597Z,4.03
2023-05-05T20:12:47.791Z,4.20
2023-05-05T20:15:18.657Z,4.00
2023-05-05T20:17:46.830Z,4.30
2023-05-05T20:20:17.036Z,4.57
2023-05-05T20:22:44.944Z,4.37
2023-05-05T20:25:12.951Z,4.10
2023-05-05T20:27:40.371Z,4.30
2023-05-05T20:30:08.435Z,4.00
2023-05-05T20:32:35.845Z,4.33
2023-05-05T20:35:04.669Z,4.07
2023-05-05T20:37:31.949Z,4.10
2023-05-05T20:39:59.277Z,4.07
2023-05-05T20:42:27.787Z,4.03
2023-05-05T20:44:55.130Z,4.50
2023-05-05T20:47:22.311Z,4.23
2023-05-05T20:49:49.473Z,4.03
2023-05-05T20:52:16.698Z,4.07
2023-05-05T20:54:43.885Z,3.70
2023-05-05T20:57:11.862Z,3.80
2023-05-05T20:59:39.055Z,3.83
2023-05-05T21:02:06.521Z,3.77
2023-05-05T21:04:33.861Z,4.40
2023-05-05T21:07:01.217Z,4.07
2023-05-05T21:09:28.429Z,4.00
2023-05-05T21:11:55.709Z,3.13
2023-05-05T21:14:23.484Z,3.87
2023-05-05T21:16:50.817Z,3.60
2023-05-05T21:19:18.065Z,4.57
2023-05-05T21:21:45.228Z,3.90
2023-05-05T21:24:15.500Z,3.77
2023-05-05T21:26:44.172Z,4.07
2023-05-05T21:29:11.468Z,4.00
2023-05-05T21:31:38.709Z,4.50
2023-05-05T21:34:05.895Z,4.90
2023-05-05T21:36:33.919Z,4.53
2023-05-05T21:39:01.648Z,4.60
2023-05-05T21:41:28.973Z,4.60
2023-05-05T21:43:56.356Z,4.37
2023-05-05T21:46:23.634Z,4.83
2023-05-05T21:48:50.865Z,4.73
2023-05-05T21:51:18.058Z,5.13
2023-05-05T21:53:45.325Z,5.07
2023-05-05T21:56:12.495Z,4.73
2023-05-05T21:58:41.287Z,4.70
2023-05-05T22:01:08.685Z,4.73
2023-05-05T22:03:36.629Z,5.00
2023-05-05T22:06:04.140Z,5.00
2023-05-05T22:08:31.449Z,4.47
2023-05-05T22:11:15.482Z,5.80
2023-05-05T22:13:42.666Z,5.10
2023-05-05T22:16:10.085Z,5.00
2023-05-05T22:18:37.423Z,4.80
2023-05-05T22:21:04.720Z,5.10
2023-05-05T22:23:31.971Z,5.17
2023-05-05T22:25:59.198Z,5.00
2023-05-05T22:28:27.761Z,4.80
2023-05-05T22:30:54.946Z,5.00
2023-05-05T22:33:22.269Z,4.80
2023-05-05T22:35:49.490Z,4.77
2023-05-05T22:38:16.815Z,4.90
2023-05-05T22:40:43.994Z,4.50
2023-05-05T22:43:11.157Z,4.97
2023-05-05T22:45:38.622Z,5.20
2023-05-05T22:50:36.638Z,4.80
2023-05-05T22:53:04.080Z,5.40
2023-05-05T22:55:31.309Z,5.57
2023-05-05T22:57:58.543Z,4.90
2023-05-05T23:00:25.844Z,5.07
2023-05-05T23:02:53.104Z,4.90
2023-05-05T23:05:20.335Z,4.70
2023-05-05T23:07:47.610Z,5.27
2023-05-05T23:10:14.780Z,4.77
2023-05-05T23:12:42.036Z,5.07
2023-05-05T23:15:10.049Z,5.10
2023-05-05T23:17:37.641Z,4.50
2023-05-05T23:20:05.680Z,5.20
2023-05-05T23:22:32.870Z,4.40
2023-05-05T23:25:00.408Z,5.33
2023-05-05T23:27:27.639Z,4.80
2023-05-05T23:29:54.810Z,4.37
2023-05-05T23:32:21.961Z,4.77
2023-05-05T23:34:49.227Z,4.70
2023-05-05T23:37:16.404Z,4.43
2023-05-05T23:39:43.591Z,4.97
2023-05-05T23:42:10.828Z,4.10
2023-05-05T23:44:38.036Z,4.80
2023-05-05T23:47:05.687Z,4.30
2023-05-05T23:49:32.842Z,4.80
2023-05-05T23:52:00.051Z,5.10
2023-05-05T23:54:27.322Z,4.80
2023-05-05T23:56:54.480Z,4.80
2023-05-05T23:59:21.767Z,4.90
